METAR Data
IDs: Format: Raw Decoded Include TAF

Data at: 2034 UTC 21 Sep 2021

METAR for:KDUH (Toledo/Suburban Arpt, MI, US)
Text:KDUH 212015Z AUTO 20004KT 7SM SCT008 BKN032 OVC037 22/21 A3003 RMK AO2 T02200210
Temperature: 22.0°C ( 72°F)
Dewpoint: 21.0°C ( 70°F) [RH = 94%]
Pressure (altimeter):30.03 inches Hg (1017.0 mb)
Winds:from the SSW (200 degrees) at 5 MPH (4 knots; 2.1 m/s)
Visibility: 7 sm ( 11 km)
Ceiling:3200 feet AGL
Clouds: scattered clouds at 800 feet AGL, broken clouds at 3200 feet AGL, overcast cloud deck at 3700 feet AGL
QC Flag:automated observation with no human augmentation